首页
METAR-TAF:

METAR-TAF

机场 :

Vance Air Force Base, 奧克拉荷馬州, 美国

纬度: 36-20N, 经度: 097-55W, 海拔: 398米

当前天气观测

该预报发布于58分钟前的18:55 UTC
风速8节,风向
温度 31°C
湿度 49%
气压 1023 hPa
能見度: 16.1公里
散云层高于5000英尺
多云层高于11000英尺

METAR: KEND 201855Z 17008KT 10SM SCT050 BKN110 31/19 A3020 RMK AO2A SLP214 T03090189 $

时间: 14:53 (19:53 UTC)

预报

该预报发布于1小时和53分钟前的18:00 UTC
预报有效从20日的 18点(UTC)到 21日的 24点(UTC)
风速8节,风向南转南东
能见度10公里或以上
多云层高于5000英尺
多云层高于10000英尺
短暂存在
从 20日的 21点(UTC)到 21日的 00点(UTC)
多云层高于4000英尺
附近有阵雨
成为
从 21日的 02点(UTC)到 21日的 03点(UTC)
风速6节,风向
能见度10公里或以上
多云层高于15000英尺
成为
从 21日的 14点(UTC)到 21日的 15点(UTC)
风速10节,风向,有时为15节阵风
能见度10公里或以上
多云层高于5000英尺
多云层高于15000英尺
成为
从 21日的 23点(UTC)到 22日的 00点(UTC)
风速10节,风向
能见度10公里或以上
少量云层高于15000英尺

TAF: KEND 201800Z 2018/2124 15008KT 9999 BKN050 BKN100 QNH3021INS TEMPO 2021/2100 VCSH BKN040 BECMG 2102/2103 18006KT 9999 BKN150 QNH3016INS BECMG 2114/2115 18010G15KT 9999 BKN050 BKN150 QNH3002INS BECMG 2123/2200 18010KT 9999 FEW150 QNH2998INS TX34/2022Z TN23/2112Z

超过4000个机场的气象观测和天气预报(METAR&TAF报告)。

可查询的气象台以黄色和红色小点在地图上表示。

将鼠标移到小点上方,可查看气象台名称。

然后点击查看天气观测和预报。

如需切换地图:点击带黑十字的绿色按钮放大地图;点击带横线的绿色按钮缩小地图;或者点击绿色箭头查看邻近地区的地图。


METAR-TAF: